K6ALF Weather Reports


Display with metric or nautical units.
time (UTC)temp
F
wind
direction
speed
MPH
gust
MPH
rain 1hr
in
rain 24hr
in
rain mn
in
humidity
%
barometer
mb
20220702211519 79 225 4.0 13.0 0.00 0.00 0.00 44 1011.2
20220702210019 78 203 2.0 11.0 0.00 0.00 0.00 46 1011.2
20220702204519 78 203 2.0 10.0 0.00 0.00 0.00 46 1011.3
20220702203020 77 135 2.0 10.0 0.00 0.00 0.00 49 1011.4
20220702201519 77 225 2.0 6.0 0.00 0.00 0.00 50 1011.7
20220702200019 75 225 3.0 11.0 0.00 0.00 0.00 52 1011.7
20220702194519 75 135 2.0 8.0 0.00 0.00 0.00 51 1011.9
20220702193019 75 225 2.0 11.0 0.00 0.00 0.00 52 1012.0
20220702191519 75 135 2.0 10.0 0.00 0.00 0.00 53 1012.0
20220702190019 74 225 2.0 10.0 0.00 0.00 0.00 54 1011.9
20220702184519 73 135 2.0 10.0 0.00 0.00 0.00 56 1012.0
20220702183019 71 135 3.0 14.0 0.00 0.00 0.00 58 1012.2
20220702181519 70 203 3.0 13.0 0.00 0.00 0.00 58 1012.1
20220702180019 70 225 2.0 13.0 0.00 0.00 0.00 60 1012.2
20220702174520 69 135 2.0 10.0 0.00 0.00 0.00 62 1012.3
20220702173020 68 225 2.0 11.0 0.00 0.00 0.00 64 1012.4
20220702171520 67 203 2.0 10.0 0.00 0.00 0.00 64 1012.5
20220702170019 67 225 2.0 10.0 0.00 0.00 0.00 65 1012.5
20220702164519 67 135 4.0 13.0 0.00 0.00 0.00 65 1012.6
20220702163019 66 135 2.0 10.0 0.00 0.00 0.00 65 1012.5
20220702161519 66 135 1.0 7.0 0.00 0.00 0.00 67 1012.5
20220702160019 65 135 3.0 9.0 0.00 0.00 0.00 68 1012.5
20220702154519 64 135 2.0 10.0 0.00 0.00 0.00 69 1012.4
20220702153019 63 135 2.0 9.0 0.00 0.00 0.00 71 1012.3
20220702151519 62 135 2.0 11.0 0.00 0.00 0.00 72 1012.4
20220702150019 61 135 2.0 9.0 0.00 0.00 0.00 76 1012.4
20220702144519 59 135 2.0 8.0 0.00 0.00 0.00 77 1012.4
20220702143020 59 135 3.0 9.0 0.00 0.00 0.00 79 1012.3
20220702141519 58 135 2.0 8.0 0.00 0.00 0.00 81 1012.2
20220702140019 57 135 2.0 8.0 0.00 0.00 0.00 82 1012.2
20220702134519 57 135 2.0 8.0 0.00 0.00 0.00 83 1012.1
20220702133018 57 135 2.0 7.0 0.00 0.00 0.00 83 1012.0
20220702131520 57 135 3.0 8.0 0.00 0.00 0.00 83 1012.0
20220702130019 56 135 2.0 8.0 0.00 0.00 0.00 83 1011.9
20220702124519 56 135 1.0 7.0 0.00 0.00 0.00 84 1011.9
20220702123019 56 135 2.0 6.0 0.00 0.00 0.00 83 1011.7
20220702121519 56 135 2.0 6.0 0.00 0.00 0.00 83 1011.6
20220702120018 56 135 2.0 7.0 0.00 0.00 0.00 83 1011.5
20220702114519 56 135 2.0 9.0 0.00 0.00 0.00 83 1011.6
20220702113019 57 135 2.0 9.0 0.00 0.00 0.00 83 1011.5
20220702111518 57 135 4.0 8.0 0.00 0.00 0.00 82 1011.6
20220702110019 57 135 3.0 8.0 0.00 0.00 0.00 82 1011.6
20220702104520 57 135 4.0 10.0 0.00 0.00 0.00 82 1011.6
20220702103019 57 135 4.0 11.0 0.00 0.00 0.00 81 1011.6
20220702101518 58 135 4.0 10.0 0.00 0.00 0.00 80 1011.6
20220702100019 58 135 4.0 12.0 0.00 0.00 0.00 79 1011.7
20220702094518 58 135 3.0 12.0 0.00 0.00 0.00 78 1011.6
20220702093018 58 135 2.0 8.0 0.00 0.00 0.00 78 1011.6
20220702091519 59 135 3.0 11.0 0.00 0.00 0.00 77 1011.5
20220702090019 59 135 3.0 8.0 0.00 0.00 0.00 76 1011.6
20220702084519 60 135 3.0 11.0 0.00 0.00 0.00 74 1011.5
20220702083019 60 135 2.0 8.0 0.00 0.00 0.00 73 1011.4
20220702081518 61 135 3.0 8.0 0.00 0.00 0.00 71 1011.4
20220702080018 62 135 2.0 7.0 0.00 0.00 0.00 70 1011.3
20220702074518 62 135 3.0 11.0 0.00 0.00 0.00 69 1011.4
20220702073019 63 135 3.0 12.0 0.00 0.00 0.00 68 1011.3
20220702071519 64 135 2.0 10.0 0.00 0.00 0.00 66 1011.3
20220702070109 64 135 4.0 10.0 0.00 0.00 0.00 64 1011.3
20220702064518 65 135 3.0 10.0 0.00 0.00 0.00 63 1011.2
20220702063018 66 135 2.0 8.0 0.00 0.00 0.00 61 1011.2
20220702061518 67 135 2.0 8.0 0.00 0.00 0.00 58 1011.2
20220702060018 68 135 3.0 8.0 0.00 0.00 0.00 56 1011.2
20220702054520 69 135 4.0 11.0 0.00 0.00 0.00 55 1011.2
20220702053018 70 135 4.0 14.0 0.00 0.00 0.00 51 1011.1
20220702051518 72 135 4.0 10.0 0.00 0.00 0.00 48 1010.9
20220702050018 74 135 2.0 8.0 0.00 0.00 0.00 47 1010.7
20220702044518 74 135 1.0 7.0 0.00 0.00 0.00 46 1010.5
20220702043019 75 0.0 4.0 0.00 0.00 0.00 45 1010.4
20220702041518 77 135 1.0 7.0 0.00 0.00 0.00 42 1010.1
20220702040018 79 203 1.0 6.0 0.00 0.00 0.00 38 1010.0
20220702034519 81 203 1.0 6.0 0.00 0.00 0.00 37 1009.9
20220702033018 83 225 2.0 11.0 0.00 0.00 0.00 35 1009.8
20220702031518 86 0.0 4.0 0.00 0.00 0.00 27 1009.7
20220702030018 89 0.0 4.0 0.00 0.00 0.00 23 1009.6
20220702024518 90 203 1.0 6.0 0.00 0.00 0.00 21 1009.5
20220702023018 91 0.0 4.0 0.00 0.00 0.00 20 1009.6
20220702021518 91 203 1.0 5.0 0.00 0.00 0.00 20 1009.7
20220702020018 92 0.0 4.0 0.00 0.00 0.00 18 1009.7
20220702014517 92 225 1.0 7.0 0.00 0.00 0.00 19 1009.8
20220702013017 93 225 1.0 6.0 0.00 0.00 0.00 19 1009.8
20220702011518 93 225 1.0 6.0 0.00 0.00 0.00 19 1009.9
20220702010018 93 203 1.0 6.0 0.00 0.00 0.00 21 1010.1
20220702004517 93 270 1.0 9.0 0.00 0.00 0.00 23 1010.2
20220702003019 93 225 2.0 6.0 0.00 0.00 0.00 20 1010.4
20220702001518 94 225 1.0 5.0 0.00 0.00 0.00 24 1010.5
20220702000017 93 203 1.0 7.0 0.00 0.00 0.00 22 1010.7
20220701234518 93 203 1.0 8.0 0.00 0.00 0.00 25 1010.8
20220701233018 93 225 1.0 7.0 0.00 0.00 0.00 27 1010.9
20220701231518 92 225 1.0 10.0 0.00 0.00 0.00 25 1011.2
20220701230017 91 135 2.0 6.0 0.00 0.00 0.00 29 1011.2
20220701224518 92 248 2.0 8.0 0.00 0.00 0.00 29 1011.5
20220701223017 91 225 1.0 7.0 0.00 0.00 0.00 29 1011.7
20220701221517 90 225 1.0 7.0 0.00 0.00 0.00 31 1011.8
20220701220018 90 135 2.0 7.0 0.00 0.00 0.00 32 1012.1
20220701214518 90 203 1.0 4.0 0.00 0.00 0.00 33 1012.1
20220701213017 88 225 1.0 8.0 0.00 0.00 0.00 32 1012.3